4XCDL LLHZ-LLHA
Flight info
| Callsign | 4XCDL |
|---|---|
| Flight time | 0h 34m |
| Altitude | 3000 |
| Route | BAZRA DEROR SHARO HADRA FRDIS BOREN HOTRM DAROM GALIM |
| Aircraft | C152/L-V/N |
Departure
| Time | 2026-04-25 08:26 |
|---|---|
| Airport | Herzliya Airport (LLHZ) |
Arrival
| Time | 2026-04-25 09:00 |
|---|---|
| Airport | Uri Michaeli Haifa International Airport (LLHA) |
| Time | Latitude | Longitude | Altitude | Speed | Heading |
|---|---|---|---|---|---|
| 2026-04-25 08:12 | 32.18050 | 34.83207 | 100 ft | 0 kts | 20° |
| 2026-04-25 08:19 | 32.18056 | 34.83211 | 100 ft | 4 kts | 46° |
| 2026-04-25 08:19 | 32.18057 | 34.83242 | 101 ft | 8 kts | 105° |
| 2026-04-25 08:19 | 32.18032 | 34.83330 | 103 ft | 11 kts | 112° |
| 2026-04-25 08:19 | 32.18010 | 34.83406 | 105 ft | 9 kts | 108° |
| 2026-04-25 08:20 | 32.17992 | 34.83463 | 106 ft | 8 kts | 109° |
| 2026-04-25 08:20 | 32.17967 | 34.83545 | 108 ft | 13 kts | 106° |
| 2026-04-25 08:20 | 32.17938 | 34.83646 | 112 ft | 10 kts | 109° |
| 2026-04-25 08:20 | 32.17920 | 34.83711 | 116 ft | 8 kts | 111° |
| 2026-04-25 08:21 | 32.17905 | 34.83760 | 118 ft | 6 kts | 109° |
| 2026-04-25 08:21 | 32.17898 | 34.83784 | 118 ft | 0 kts | 109° |
| 2026-04-25 08:21 | 32.17894 | 34.83797 | 120 ft | 3 kts | 111° |
| 2026-04-25 08:21 | 32.17887 | 34.83818 | 118 ft | 1 kts | 110° |
| 2026-04-25 08:22 | 32.17882 | 34.83833 | 119 ft | 5 kts | 110° |
| 2026-04-25 08:22 | 32.17881 | 34.83840 | 120 ft | 1 kts | 98° |
| 2026-04-25 08:22 | 32.17880 | 34.83846 | 121 ft | 0 kts | 94° |
| 2026-04-25 08:24 | 32.17884 | 34.83858 | 122 ft | 3 kts | 34° |
| 2026-04-25 08:24 | 32.17908 | 34.83856 | 124 ft | 6 kts | 316° |
| 2026-04-25 08:25 | 32.17954 | 34.83721 | 118 ft | 44 kts | 290° |
| 2026-04-25 08:25 | 32.18095 | 34.83245 | 225 ft | 65 kts | 289° |
| 2026-04-25 08:25 | 32.18307 | 34.82713 | 354 ft | 74 kts | 323° |
| 2026-04-25 08:25 | 32.18799 | 34.82726 | 494 ft | 81 kts | 12° |
| 2026-04-25 08:26 | 32.19254 | 34.83156 | 611 ft | 87 kts | 64° |
| 2026-04-25 08:26 | 32.19287 | 34.83872 | 705 ft | 94 kts | 108° |
| 2026-04-25 08:26 | 32.18993 | 34.84570 | 812 ft | 96 kts | 117° |
| 2026-04-25 08:26 | 32.18679 | 34.85259 | 933 ft | 95 kts | 115° |
| 2026-04-25 08:27 | 32.18588 | 34.86019 | 1018 ft | 96 kts | 71° |
| 2026-04-25 08:27 | 32.19063 | 34.86603 | 935 ft | 106 kts | 33° |
| 2026-04-25 08:27 | 32.19625 | 34.87053 | 859 ft | 91 kts | 35° |
| 2026-04-25 08:27 | 32.20100 | 34.87457 | 783 ft | 81 kts | 36° |
| 2026-04-25 08:28 | 32.20533 | 34.87826 | 756 ft | 76 kts | 33° |
| 2026-04-25 08:28 | 32.20992 | 34.88156 | 806 ft | 82 kts | 21° |
| 2026-04-25 08:28 | 32.21584 | 34.88320 | 779 ft | 92 kts | 13° |
| 2026-04-25 08:28 | 32.22196 | 34.88381 | 864 ft | 85 kts | 357° |
| 2026-04-25 08:29 | 32.22760 | 34.88347 | 1004 ft | 72 kts | 3° |
| 2026-04-25 08:29 | 32.23235 | 34.88439 | 1205 ft | 69 kts | 14° |
| 2026-04-25 08:29 | 32.23746 | 34.88586 | 1325 ft | 80 kts | 16° |
| 2026-04-25 08:29 | 32.24310 | 34.88742 | 1442 ft | 88 kts | 14° |
| 2026-04-25 08:30 | 32.24896 | 34.88908 | 1625 ft | 84 kts | 16° |
| 2026-04-25 08:30 | 32.25471 | 34.89034 | 1782 ft | 87 kts | 12° |
| 2026-04-25 08:30 | 32.26129 | 34.89162 | 1710 ft | 103 kts | 12° |
| 2026-04-25 08:30 | 32.26818 | 34.89322 | 1677 ft | 107 kts | 12° |
| 2026-04-25 08:31 | 32.27554 | 34.89444 | 1664 ft | 105 kts | 8° |
| 2026-04-25 08:31 | 32.28306 | 34.89539 | 1503 ft | 113 kts | 9° |
| 2026-04-25 08:31 | 32.29060 | 34.89677 | 1537 ft | 106 kts | 12° |
| 2026-04-25 08:31 | 32.29783 | 34.89828 | 1514 ft | 104 kts | 13° |
| 2026-04-25 08:32 | 32.30492 | 34.89980 | 1506 ft | 104 kts | 12° |
| 2026-04-25 08:32 | 32.31210 | 34.90114 | 1500 ft | 102 kts | 11° |
| 2026-04-25 08:32 | 32.31896 | 34.90269 | 1474 ft | 98 kts | 15° |
| 2026-04-25 08:32 | 32.32550 | 34.90414 | 1441 ft | 97 kts | 8° |
| 2026-04-25 08:33 | 32.33226 | 34.90490 | 1385 ft | 98 kts | 6° |
| 2026-04-25 08:33 | 32.33886 | 34.90555 | 1403 ft | 93 kts | 6° |
| 2026-04-25 08:33 | 32.34531 | 34.90620 | 1432 ft | 97 kts | 5° |
| 2026-04-25 08:33 | 32.35216 | 34.90614 | 1447 ft | 98 kts | 2° |
| 2026-04-25 08:34 | 32.35897 | 34.90617 | 1498 ft | 98 kts | 2° |
| 2026-04-25 08:34 | 32.36575 | 34.90620 | 1582 ft | 97 kts | 4° |
| 2026-04-25 08:34 | 32.37246 | 34.90631 | 1617 ft | 98 kts | 1° |
| 2026-04-25 08:34 | 32.37959 | 34.90509 | 1622 ft | 100 kts | 355° |
| 2026-04-25 08:35 | 32.38630 | 34.90557 | 1562 ft | 102 kts | 17° |
| 2026-04-25 08:35 | 32.39333 | 34.90788 | 1512 ft | 107 kts | 15° |
| 2026-04-25 08:35 | 32.40045 | 34.90993 | 1487 ft | 109 kts | 14° |
| 2026-04-25 08:35 | 32.40793 | 34.90967 | 1451 ft | 110 kts | 344° |
| 2026-04-25 08:36 | 32.41490 | 34.90743 | 1508 ft | 99 kts | 358° |
| 2026-04-25 08:36 | 32.42009 | 34.90657 | 1268 ft | 117 kts | 340° |
| 2026-04-25 08:36 | 32.42689 | 34.90696 | 1552 ft | 92 kts | 24° |
| 2026-04-25 08:36 | 32.43305 | 34.90969 | 1610 ft | 97 kts | 11° |
| 2026-04-25 08:37 | 32.43981 | 34.91080 | 1709 ft | 98 kts | 10° |
| 2026-04-25 08:37 | 32.44727 | 34.91151 | 1625 ft | 110 kts | 6° |
| 2026-04-25 08:37 | 32.45485 | 34.91199 | 1600 ft | 109 kts | 6° |
| 2026-04-25 08:37 | 32.46189 | 34.91268 | 1618 ft | 95 kts | 8° |
| 2026-04-25 08:38 | 32.46857 | 34.91354 | 1531 ft | 100 kts | 11° |
| 2026-04-25 08:38 | 32.47528 | 34.91545 | 1551 ft | 99 kts | 17° |
| 2026-04-25 08:38 | 32.48182 | 34.91820 | 1546 ft | 103 kts | 28° |
| 2026-04-25 08:38 | 32.48789 | 34.92285 | 1483 ft | 100 kts | 37° |
| 2026-04-25 08:39 | 32.49262 | 34.92818 | 1501 ft | 95 kts | 49° |
| 2026-04-25 08:39 | 32.49708 | 34.93410 | 1506 ft | 96 kts | 38° |
| 2026-04-25 08:39 | 32.50281 | 34.93772 | 1553 ft | 91 kts | 19° |
| 2026-04-25 08:39 | 32.50923 | 34.93921 | 1576 ft | 94 kts | 16° |
| 2026-04-25 08:40 | 32.51578 | 34.94074 | 1591 ft | 100 kts | 13° |
| 2026-04-25 08:40 | 32.52279 | 34.94241 | 1572 ft | 104 kts | 13° |
| 2026-04-25 08:40 | 32.52960 | 34.94423 | 1579 ft | 101 kts | 14° |
| 2026-04-25 08:40 | 32.53664 | 34.94593 | 1554 ft | 104 kts | 13° |
| 2026-04-25 08:41 | 32.54375 | 34.94758 | 1512 ft | 104 kts | 13° |
| 2026-04-25 08:41 | 32.55068 | 34.94909 | 1517 ft | 100 kts | 12° |
| 2026-04-25 08:41 | 32.55762 | 34.95059 | 1431 ft | 103 kts | 11° |
| 2026-04-25 08:41 | 32.56460 | 34.95186 | 1507 ft | 100 kts | 11° |
| 2026-04-25 08:42 | 32.57131 | 34.95310 | 1527 ft | 96 kts | 9° |
| 2026-04-25 08:42 | 32.57801 | 34.95415 | 1490 ft | 98 kts | 9° |
| 2026-04-25 08:42 | 32.58487 | 34.95520 | 1470 ft | 100 kts | 9° |
| 2026-04-25 08:42 | 32.59151 | 34.95612 | 1488 ft | 91 kts | 8° |
| 2026-04-25 08:43 | 32.59759 | 34.95719 | 1561 ft | 89 kts | 10° |
| 2026-04-25 08:43 | 32.60396 | 34.95813 | 1603 ft | 96 kts | 7° |
| 2026-04-25 08:43 | 32.61091 | 34.95919 | 1478 ft | 106 kts | 9° |
| 2026-04-25 08:43 | 32.61802 | 34.96028 | 1483 ft | 99 kts | 7° |
| 2026-04-25 08:44 | 32.62459 | 34.96139 | 1454 ft | 88 kts | 11° |
| 2026-04-25 08:44 | 32.63063 | 34.96229 | 1467 ft | 86 kts | 8° |
| 2026-04-25 08:44 | 32.63656 | 34.96318 | 1543 ft | 88 kts | 11° |
| 2026-04-25 08:44 | 32.64281 | 34.96395 | 1576 ft | 93 kts | 5° |
| 2026-04-25 08:45 | 32.64923 | 34.96465 | 1670 ft | 92 kts | 10° |
| 2026-04-25 08:45 | 32.65604 | 34.96574 | 1558 ft | 100 kts | 5° |
| 2026-04-25 08:45 | 32.66254 | 34.96647 | 1603 ft | 95 kts | 8° |
| 2026-04-25 08:45 | 32.66947 | 34.96726 | 1536 ft | 101 kts | 8° |
| 2026-04-25 08:46 | 32.67650 | 34.96828 | 1496 ft | 102 kts | 8° |
| 2026-04-25 08:46 | 32.68338 | 34.96926 | 1404 ft | 100 kts | 8° |
| 2026-04-25 08:46 | 32.69009 | 34.97024 | 1499 ft | 88 kts | 10° |
| 2026-04-25 08:46 | 32.69575 | 34.97111 | 1512 ft | 75 kts | 9° |
| 2026-04-25 08:47 | 32.70101 | 34.97164 | 1461 ft | 78 kts | 6° |
| 2026-04-25 08:47 | 32.70629 | 34.97194 | 1560 ft | 72 kts | 9° |
| 2026-04-25 08:47 | 32.71201 | 34.97131 | 1522 ft | 90 kts | 345° |
| 2026-04-25 08:47 | 32.71754 | 34.96737 | 1560 ft | 99 kts | 323° |
| 2026-04-25 08:48 | 32.72282 | 34.96120 | 1454 ft | 106 kts | 324° |
| 2026-04-25 08:48 | 32.72807 | 34.95558 | 1451 ft | 95 kts | 323° |
| 2026-04-25 08:48 | 32.73315 | 34.95016 | 1347 ft | 103 kts | 320° |
| 2026-04-25 08:48 | 32.73845 | 34.94516 | 1474 ft | 94 kts | 326° |
| 2026-04-25 08:49 | 32.74345 | 34.94030 | 1584 ft | 91 kts | 322° |
| 2026-04-25 08:49 | 32.74854 | 34.93534 | 1509 ft | 105 kts | 326° |
| 2026-04-25 08:49 | 32.75481 | 34.93219 | 1608 ft | 94 kts | 354° |
| 2026-04-25 08:49 | 32.76192 | 34.93198 | 1468 ft | 99 kts | 4° |
| 2026-04-25 08:50 | 32.76839 | 34.93239 | 1557 ft | 89 kts | 6° |
| 2026-04-25 08:50 | 32.77408 | 34.93283 | 1710 ft | 76 kts | 7° |
| 2026-04-25 08:50 | 32.78042 | 34.93343 | 1511 ft | 97 kts | 5° |
| 2026-04-25 08:50 | 32.78714 | 34.93415 | 1485 ft | 92 kts | 6° |
| 2026-04-25 08:51 | 32.79324 | 34.93495 | 1558 ft | 87 kts | 10° |
| 2026-04-25 08:51 | 32.79930 | 34.93622 | 1544 ft | 91 kts | 12° |
| 2026-04-25 08:51 | 32.80545 | 34.93786 | 1554 ft | 91 kts | 13° |
| 2026-04-25 08:51 | 32.81176 | 34.93955 | 1574 ft | 91 kts | 14° |
| 2026-04-25 08:52 | 32.81786 | 34.94142 | 1588 ft | 91 kts | 19° |
| 2026-04-25 08:52 | 32.82323 | 34.94406 | 1574 ft | 85 kts | 27° |
| 2026-04-25 08:52 | 32.82845 | 34.94780 | 1400 ft | 91 kts | 33° |
| 2026-04-25 08:52 | 32.83308 | 34.95259 | 1393 ft | 85 kts | 48° |
| 2026-04-25 08:53 | 32.83622 | 34.95821 | 1537 ft | 76 kts | 58° |
| 2026-04-25 08:53 | 32.83839 | 34.96364 | 1635 ft | 70 kts | 60° |
| 2026-04-25 08:53 | 32.84003 | 34.96946 | 1693 ft | 76 kts | 69° |
| 2026-04-25 08:53 | 32.84045 | 34.97587 | 1773 ft | 83 kts | 81° |
| 2026-04-25 08:54 | 32.84062 | 34.98364 | 1612 ft | 97 kts | 82° |
| 2026-04-25 08:54 | 32.84081 | 34.99156 | 1578 ft | 96 kts | 83° |
| 2026-04-25 08:54 | 32.84107 | 34.99968 | 1553 ft | 102 kts | 85° |
| 2026-04-25 08:54 | 32.84150 | 35.00815 | 1613 ft | 100 kts | 83° |
| 2026-04-25 08:55 | 32.84175 | 35.01650 | 1591 ft | 100 kts | 88° |
| 2026-04-25 08:55 | 32.84085 | 35.02435 | 1376 ft | 91 kts | 103° |
| 2026-04-25 08:55 | 32.83822 | 35.03095 | 1206 ft | 85 kts | 123° |
| 2026-04-25 08:55 | 32.83354 | 35.03536 | 976 ft | 89 kts | 150° |
| 2026-04-25 08:56 | 32.82806 | 35.03891 | 947 ft | 88 kts | 148° |
| 2026-04-25 08:56 | 32.82259 | 35.04303 | 922 ft | 101 kts | 144° |
| 2026-04-25 08:56 | 32.81656 | 35.04788 | 913 ft | 106 kts | 145° |
| 2026-04-25 08:56 | 32.81021 | 35.05246 | 863 ft | 107 kts | 150° |
| 2026-04-25 08:57 | 32.80482 | 35.05807 | 919 ft | 95 kts | 133° |
| 2026-04-25 08:57 | 32.80040 | 35.06373 | 840 ft | 95 kts | 131° |
| 2026-04-25 08:57 | 32.79597 | 35.06985 | 748 ft | 101 kts | 121° |
| 2026-04-25 08:57 | 32.79183 | 35.07657 | 834 ft | 100 kts | 144° |
| 2026-04-25 08:58 | 32.78499 | 35.07806 | 824 ft | 108 kts | 179° |
| 2026-04-25 08:58 | 32.77809 | 35.07773 | 931 ft | 96 kts | 202° |
| 2026-04-25 08:58 | 32.77472 | 35.07415 | 918 ft | 100 kts | 245° |
| 2026-04-25 08:58 | 32.77448 | 35.06748 | 903 ft | 105 kts | 290° |
| 2026-04-25 08:59 | 32.77641 | 35.06241 | 843 ft | 101 kts | 303° |
| 2026-04-25 08:59 | 32.78091 | 35.05682 | 719 ft | 87 kts | 327° |
| 2026-04-25 08:59 | 32.78615 | 35.05268 | 661 ft | 93 kts | 325° |
| 2026-04-25 08:59 | 32.79133 | 35.04931 | 585 ft | 68 kts | 342° |
| 2026-04-25 09:00 | 32.79548 | 35.04799 | 398 ft | 59 kts | 349° |
| 2026-04-25 09:00 | 32.79960 | 35.04803 | 230 ft | 57 kts | 351° |
| 2026-04-25 09:00 | 32.80334 | 35.04672 | 79 ft | 55 kts | 339° |
| 2026-04-25 09:00 | 32.80655 | 35.04536 | 10 ft | 34 kts | 342° |
| 2026-04-25 09:01 | 32.80768 | 35.04484 | 10 ft | 11 kts | 336° |
| 2026-04-25 09:01 | 32.80834 | 35.04453 | 10 ft | 13 kts | 339° |
| 2026-04-25 09:01 | 32.80938 | 35.04406 | 12 ft | 16 kts | 341° |
| 2026-04-25 09:01 | 32.81025 | 35.04398 | 12 ft | 11 kts | 54° |
| 2026-04-25 09:02 | 32.81046 | 35.04460 | 12 ft | 7 kts | 68° |
| 2026-04-25 09:02 | 32.81088 | 35.04492 | 12 ft | 15 kts | 351° |
| 2026-04-25 09:02 | 32.81144 | 35.04500 | 13 ft | 0 kts | 340° |